Time;durP1;ratioP1;P1;durP2;ratioP2;P2;SDS_P1;SDS_P2;PMS_P1;PMS_P2;Temp;Humidity;BMP_temperature;BMP_pressure;BME280_temperature;BME280_humidity;BME280_pressure;Samples;Min_cycle;Max_cycle;Signal;HPM_P1;HPM_P2
2023/08/27 00:00:26;;;;;;;5.50;3.40;;;;;;;12.80;100.00;101020.50;5096623;28;20112;-77
2023/08/27 00:02:52;;;;;;;3.53;2.95;;;;;;;12.79;100.00;101018.81;5095984;28;20036;-78
2023/08/27 00:05:17;;;;;;;6.25;3.30;;;;;;;12.78;100.00;101011.81;5096363;28;20032;-75
2023/08/27 00:07:42;;;;;;;7.00;3.53;;;;;;;12.78;100.00;101009.16;5095761;28;20056;-75
2023/08/27 00:10:08;;;;;;;9.70;3.70;;;;;;;12.75;100.00;101006.78;5095895;28;20064;-77
2023/08/27 00:12:33;;;;;;;7.68;3.60;;;;;;;12.76;100.00;101011.09;5096196;28;20409;-75
2023/08/27 00:14:59;;;;;;;5.32;3.30;;;;;;;12.75;100.00;101001.44;5095871;28;20118;-75
2023/08/27 00:17:24;;;;;;;8.20;3.67;;;;;;;12.74;100.00;101006.94;5095713;28;20039;-77
2023/08/27 00:19:50;;;;;;;3.72;3.22;;;;;;;12.71;100.00;101010.72;5095740;28;20032;-75
2023/08/27 00:22:15;;;;;;;9.63;3.90;;;;;;;12.67;100.00;101004.84;5077473;28;20149;-75
2023/08/27 00:24:40;;;;;;;7.18;3.60;;;;;;;12.65;100.00;101005.97;5095967;28;20035;-75
2023/08/27 00:27:06;;;;;;;8.15;3.72;;;;;;;12.58;100.00;101003.06;5095303;28;20076;-75
2023/08/27 00:29:32;;;;;;;8.88;3.85;;;;;;;12.51;100.00;100992.16;5095377;28;20043;-75
2023/08/27 00:31:57;;;;;;;4.45;3.90;;;;;;;12.45;100.00;100989.22;5095652;28;20110;-75
2023/08/27 00:34:31;;;;;;;5.90;3.70;;;;;;;12.44;100.00;101000.91;5096054;28;20500;-75
2023/08/27 00:36:57;;;;;;;5.40;3.40;;;;;;;12.38;100.00;100991.63;5095128;28;20041;-75
2023/08/27 00:39:22;;;;;;;7.68;3.75;;;;;;;12.35;100.00;100998.09;5077725;28;20028;-76
2023/08/27 00:41:47;;;;;;;8.93;4.47;;;;;;;12.31;100.00;100999.38;5077792;28;20036;-75
2023/08/27 00:44:13;;;;;;;7.28;3.90;;;;;;;12.28;100.00;100999.66;5095607;28;20082;-75
2023/08/27 00:46:39;;;;;;;4.15;3.00;;;;;;;12.27;100.00;100997.16;5095233;28;20059;-75
2023/08/27 00:49:04;;;;;;;8.77;3.70;;;;;;;12.27;100.00;100995.34;5095193;28;20032;-75
2023/08/27 00:51:32;;;;;;;7.65;3.45;;;;;;;12.27;100.00;100984.69;5094924;28;20056;-75
2023/08/27 00:53:58;;;;;;;7.43;3.50;;;;;;;12.29;100.00;100979.19;5095094;28;20060;-76
2023/08/27 00:56:24;;;;;;;6.93;3.00;;;;;;;12.28;100.00;100975.66;5095281;28;20078;-75
2023/08/27 00:58:50;;;;;;;8.05;3.40;;;;;;;12.27;100.00;100968.66;5077011;28;20044;-75
2023/08/27 01:01:16;;;;;;;8.18;3.10;;;;;;;12.27;100.00;100965.13;5094973;28;20445;-75
2023/08/27 01:03:43;;;;;;;6.60;3.30;;;;;;;12.28;100.00;100961.50;5094956;28;20036;-75
2023/08/27 01:06:08;;;;;;;6.72;3.42;;;;;;;12.31;100.00;100961.19;5095054;28;20038;-75
2023/08/27 01:08:46;;;;;;;7.80;3.50;;;;;;;12.32;100.00;100955.72;5094553;28;20114;-79
2023/08/27 01:11:45;;;;;;;6.65;3.33;;;;;;;12.37;100.00;100959.78;5092312;28;20053;-79
2023/08/27 01:14:10;;;;;;;6.60;3.35;;;;;;;12.39;100.00;100945.31;5074145;28;20020;-80
2023/08/27 01:16:37;;;;;;;7.47;3.63;;;;;;;12.40;100.00;100946.97;5092654;28;20456;-76
2023/08/27 01:19:09;;;;;;;7.93;4.13;;;;;;;12.44;100.00;100944.84;5092392;28;20051;-77
2023/08/27 01:21:35;;;;;;;11.20;4.28;;;;;;;12.48;100.00;100936.41;5092133;28;20032;-79
2023/08/27 01:24:00;;;;;;;11.57;4.40;;;;;;;12.52;100.00;100937.78;5057189;28;20036;-77
2023/08/27 01:26:41;;;;;;;8.10;4.50;;;;;;;12.59;100.00;100929.19;5073597;28;20043;-77
2023/08/27 01:29:18;;;;;;;7.95;4.50;;;;;;;12.64;100.00;100927.72;5092295;28;20085;-77
2023/08/27 01:31:50;;;;;;;8.23;4.38;;;;;;;12.71;100.00;100935.97;5091949;28;20332;-79
2023/08/27 01:34:18;;;;;;;10.35;4.80;;;;;;;12.77;100.00;100937.22;5091245;28;20028;-79
2023/08/27 01:36:43;;;;;;;10.30;3.95;;;;;;;12.84;100.00;100936.44;5092334;28;20060;-79
2023/08/27 01:39:12;;;;;;;11.35;4.25;;;;;;;12.90;100.00;100939.50;5092430;28;20176;-79
2023/08/27 01:41:37;;;;;;;8.50;4.50;;;;;;;12.91;100.00;100941.19;5091650;28;20110;-79
2023/08/27 01:44:03;;;;;;;7.72;4.60;;;;;;;12.95;100.00;100948.72;5057073;28;20467;-79
2023/08/27 01:46:28;;;;;;;8.35;4.53;;;;;;;13.00;100.00;100948.28;5073587;28;20032;-79
2023/08/27 01:48:54;;;;;;;5.80;3.83;;;;;;;13.02;100.00;100948.97;5091874;28;20341;-79
2023/08/27 01:51:20;;;;;;;10.18;4.25;;;;;;;13.07;100.00;100948.50;5091574;28;20052;-81
2023/08/27 01:53:45;;;;;;;12.82;4.22;;;;;;;13.09;100.00;100939.34;5073508;28;20094;-80
2023/08/27 01:56:10;;;;;;;7.50;4.13;;;;;;;13.12;100.00;100931.03;5056567;28;20040;-79
2023/08/27 01:58:36;;;;;;;11.70;3.92;;;;;;;13.18;100.00;100940.25;5073169;28;20035;-79
2023/08/27 02:01:01;;;;;;;8.93;3.63;;;;;;;13.21;100.00;100930.13;5073653;28;20408;-79
2023/08/27 02:03:26;;;;;;;6.65;4.10;;;;;;;13.26;100.00;100939.50;5056287;28;20032;-78
2023/08/27 02:05:52;;;;;;;7.85;4.07;;;;;;;13.29;100.00;100934.69;5091667;28;20047;-79
2023/08/27 02:08:17;;;;;;;7.43;3.38;;;;;;;13.32;100.00;100945.06;5040081;28;20051;-81
2023/08/27 02:10:43;;;;;;;9.15;3.42;;;;;;;13.37;100.00;100948.13;5091390;28;20088;-82
2023/08/27 02:13:08;;;;;;;6.80;3.10;;;;;;;13.40;100.00;100947.84;5073053;28;20123;-80
2023/08/27 02:15:33;;;;;;;9.00;3.35;;;;;;;13.43;100.00;100949.34;5073084;28;20032;-80
2023/08/27 02:17:59;;;;;;;7.70;3.28;;;;;;;13.46;100.00;100949.03;5091628;28;20378;-79
2023/08/27 02:20:24;;;;;;;3.95;3.03;;;;;;;13.50;100.00;100945.06;5072769;28;20032;-80
2023/08/27 02:22:50;;;;;;;9.30;3.20;;;;;;;13.51;100.00;100933.38;5090886;28;20132;-79
2023/08/27 02:25:15;;;;;;;5.95;3.28;;;;;;;13.52;100.00;100935.03;5073186;28;20384;-79
2023/08/27 02:27:40;;;;;;;17.00;4.43;;;;;;;13.55;100.00;100926.75;5091269;28;20103;-79
2023/08/27 02:30:06;;;;;;;11.18;3.83;;;;;;;13.58;100.00;100933.59;5091238;28;20408;-79
2023/08/27 02:32:32;;;;;;;8.10;3.40;;;;;;;13.61;100.00;100938.63;5073244;28;20429;-79
2023/08/27 02:34:57;;;;;;;7.95;3.38;;;;;;;13.62;100.00;100940.31;5089670;28;20040;-81
2023/08/27 02:37:23;;;;;;;7.53;3.25;;;;;;;13.65;100.00;100937.31;5072971;28;20024;-81
2023/08/27 02:39:48;;;;;;;8.68;3.75;;;;;;;13.68;100.00;100949.53;5056424;28;20032;-79
2023/08/27 02:42:13;;;;;;;10.00;3.83;;;;;;;13.70;100.00;100947.53;5072425;28;20104;-80
2023/08/27 02:44:39;;;;;;;13.18;4.25;;;;;;;13.75;100.00;100955.94;5090934;28;20030;-79
2023/08/27 02:47:04;;;;;;;10.85;3.80;;;;;;;13.77;100.00;100945.09;5072602;28;20082;-79
2023/08/27 02:49:29;;;;;;;7.85;3.55;;;;;;;13.81;100.00;100946.44;5072229;28;20032;-79
2023/08/27 02:51:55;;;;;;;11.18;4.20;;;;;;;13.84;100.00;100949.66;5072673;28;20059;-80
2023/08/27 02:54:20;;;;;;;9.25;4.10;;;;;;;13.89;100.00;100957.19;5072242;28;20490;-81
2023/08/27 02:56:46;;;;;;;15.27;3.58;;;;;;;13.95;100.00;100961.06;5072536;28;20483;-80
2023/08/27 02:59:11;;;;;;;9.15;2.45;;;;;;;13.92;100.00;100964.91;5055860;28;20371;-81
2023/08/27 03:01:36;;;;;;;17.77;3.05;;;;;;;13.90;100.00;100965.06;5072479;28;20029;-81
2023/08/27 03:04:03;;;;;;;15.50;2.38;;;;;;;13.68;100.00;100969.09;5090385;28;20138;-78
2023/08/27 03:06:28;;;;;;;14.60;2.47;;;;;;;13.38;100.00;100968.53;5091182;28;20087;-78
2023/08/27 03:08:53;;;;;;;9.68;1.95;;;;;;;13.06;100.00;100969.03;5090482;28;20355;-78
2023/08/27 03:11:19;;;;;;;8.27;1.50;;;;;;;12.82;100.00;100980.31;5090767;28;20074;-79
2023/08/27 03:13:44;;;;;;;9.23;2.30;;;;;;;12.55;100.00;100984.66;5071873;28;20060;-80
2023/08/27 03:16:09;;;;;;;7.50;1.50;;;;;;;12.42;100.00;100976.16;5090363;28;20035;-80
2023/08/27 03:18:36;;;;;;;12.88;1.92;;;;;;;12.37;100.00;100976.59;5090732;28;20388;-80
2023/08/27 03:21:01;;;;;;;8.18;1.75;;;;;;;12.32;100.00;100978.91;5090747;28;20052;-80
2023/08/27 03:23:27;;;;;;;9.60;1.67;;;;;;;12.28;100.00;100977.50;5090286;28;20116;-79
2023/08/27 03:25:52;;;;;;;8.50;1.67;;;;;;;12.23;100.00;100977.09;5090560;28;20020;-78
2023/08/27 03:28:17;;;;;;;10.88;1.80;;;;;;;12.19;100.00;100963.22;5089884;28;20428;-80
2023/08/27 03:30:43;;;;;;;12.15;2.00;;;;;;;12.19;100.00;100965.03;5090954;28;20321;-79
2023/08/27 03:33:08;;;;;;;13.13;1.67;;;;;;;12.17;100.00;100957.19;5055390;28;20036;-79
2023/08/27 03:35:34;;;;;;;8.65;1.42;;;;;;;12.13;100.00;100950.47;5071875;28;20477;-79
2023/08/27 03:37:59;;;;;;;3.28;1.30;;;;;;;12.13;100.00;100953.13;5090405;28;20107;-79
2023/08/27 03:40:24;;;;;;;7.05;1.48;;;;;;;12.12;100.00;100957.63;5072343;28;20114;-77
2023/08/27 03:42:50;;;;;;;6.22;1.60;;;;;;;12.09;100.00;100936.59;5090337;28;20036;-77
2023/08/27 03:45:15;;;;;;;4.15;1.58;;;;;;;12.07;100.00;100919.88;5090278;28;20341;-77
2023/08/27 03:47:41;;;;;;;10.07;2.08;;;;;;;12.07;100.00;100903.03;5089865;28;20145;-78
2023/08/27 03:50:07;;;;;;;11.05;1.88;;;;;;;12.06;100.00;100904.88;5090531;28;20415;-79
2023/08/27 03:52:34;;;;;;;8.60;2.15;;;;;;;12.04;100.00;100914.84;5089723;28;20048;-78
2023/08/27 03:55:01;;;;;;;9.25;1.80;;;;;;;11.97;100.00;100917.25;5090164;28;20123;-79
2023/08/27 03:57:26;;;;;;;6.97;1.73;;;;;;;11.92;100.00;100914.16;5093569;28;20057;-79
2023/08/27 03:59:52;;;;;;;12.73;1.40;;;;;;;11.90;100.00;100916.13;5093415;28;20028;-78
2023/08/27 04:02:17;;;;;;;6.38;1.42;;;;;;;11.91;100.00;100919.63;5093540;28;20416;-77
2023/08/27 04:04:42;;;;;;;7.97;1.73;;;;;;;11.90;100.00;100918.81;5093520;28;20119;-78
2023/08/27 04:07:08;;;;;;;4.15;1.50;;;;;;;11.88;100.00;100923.41;5075026;28;20051;-77
2023/08/27 04:09:34;;;;;;;6.93;1.45;;;;;;;11.87;100.00;100931.56;5094016;28;20028;-78
2023/08/27 04:11:59;;;;;;;5.38;1.63;;;;;;;11.80;100.00;100947.31;5093597;28;20058;-78
2023/08/27 04:14:24;;;;;;;7.30;1.67;;;;;;;11.74;100.00;100951.38;5093314;28;20448;-79
2023/08/27 04:16:50;;;;;;;5.97;1.65;;;;;;;11.70;100.00;100947.31;5075403;28;20165;-78
2023/08/27 04:19:15;;;;;;;5.60;1.77;;;;;;;11.70;100.00;100949.16;5074876;28;20214;-78
2023/08/27 04:21:41;;;;;;;9.68;1.70;;;;;;;11.70;100.00;100947.31;5074862;28;20177;-80
2023/08/27 04:24:06;;;;;;;5.57;1.73;;;;;;;11.70;100.00;100951.81;5093638;28;20047;-78
2023/08/27 04:26:32;;;;;;;3.22;1.60;;;;;;;11.74;100.00;100956.72;5093405;28;20346;-78
2023/08/27 04:28:57;;;;;;;6.25;1.70;;;;;;;11.77;100.00;100951.09;5093262;28;20034;-78
2023/08/27 04:31:23;;;;;;;7.22;1.90;;;;;;;11.77;100.00;100940.44;5093250;28;20038;-79
2023/08/27 04:33:48;;;;;;;4.88;1.60;;;;;;;11.81;100.00;100939.16;5093395;28;20387;-78
2023/08/27 04:36:13;;;;;;;8.15;2.20;;;;;;;11.82;100.00;100934.66;5093529;28;20465;-78
2023/08/27 04:38:39;;;;;;;5.43;2.10;;;;;;;11.81;100.00;100936.50;5092956;28;20101;-79
2023/08/27 04:41:05;;;;;;;8.32;1.50;;;;;;;11.78;100.00;100939.47;5092549;28;20517;-79
2023/08/27 04:43:31;;;;;;;4.70;1.73;;;;;;;11.73;100.00;100938.22;5092165;28;20044;-80
2023/08/27 04:45:56;;;;;;;1.88;1.20;;;;;;;11.65;100.00;100933.59;5092220;28;20464;-81
2023/08/27 04:48:21;;;;;;;6.15;1.60;;;;;;;11.62;100.00;100942.72;5074350;28;20104;-79
2023/08/27 04:50:47;;;;;;;3.67;1.50;;;;;;;11.57;100.00;100936.13;5092240;28;20049;-81
2023/08/27 04:53:13;;;;;;;3.13;1.60;;;;;;;11.53;100.00;100934.75;5052385;28;20033;-80
2023/08/27 04:55:39;;;;;;;7.78;1.67;;;;;;;11.50;100.00;100937.72;5052446;28;20411;-80
2023/08/27 04:58:05;;;;;;;3.60;1.42;;;;;;;11.45;100.00;100938.13;5051983;28;20354;-81
2023/08/27 05:00:31;;;;;;;4.43;1.73;;;;;;;11.43;100.00;100934.75;5050815;28;20037;-81
2023/08/27 05:02:57;;;;;;;10.88;2.08;;;;;;;11.40;100.00;100940.38;5050644;28;20037;-80
2023/08/27 05:05:22;;;;;;;7.97;1.70;;;;;;;11.39;100.00;100934.22;5051734;28;20044;-81
2023/08/27 05:07:48;;;;;;;8.18;1.90;;;;;;;11.36;100.00;100953.16;5050753;28;20117;-80
2023/08/27 05:10:13;;;;;;;4.30;1.50;;;;;;;11.33;100.00;100950.75;5051954;28;20025;-80
2023/08/27 05:12:39;;;;;;;4.75;1.55;;;;;;;11.28;100.00;100953.00;5051735;28;20120;-81
2023/08/27 05:15:05;;;;;;;1.70;1.60;;;;;;;11.26;100.00;100939.81;5051772;28;20132;-79
2023/08/27 05:17:31;;;;;;;5.95;1.60;;;;;;;11.28;100.00;100940.50;5051402;28;20041;-82
2023/08/27 05:19:56;;;;;;;4.80;1.60;;;;;;;11.31;100.00;100944.72;5066825;28;20047;-80
2023/08/27 05:22:22;;;;;;;6.75;1.90;;;;;;;11.32;100.00;100933.09;5051708;28;20029;-80
2023/08/27 05:24:47;;;;;;;3.15;1.80;;;;;;;11.33;100.00;100926.78;5066651;28;20040;-80
2023/08/27 05:27:12;;;;;;;1.98;1.80;;;;;;;11.38;100.00;100929.03;5051731;28;20033;-79
2023/08/27 05:29:38;;;;;;;8.50;1.83;;;;;;;11.41;100.00;100921.56;5051492;28;20045;-80
2023/08/27 05:32:05;;;;;;;2.25;1.80;;;;;;;11.46;100.00;100923.81;5051406;28;20033;-78
2023/08/27 05:34:31;;;;;;;7.07;2.05;;;;;;;11.54;100.00;100917.75;5051762;28;20055;-82
2023/08/27 05:36:56;;;;;;;6.18;2.28;;;;;;;11.68;100.00;100917.31;5033243;28;20489;-79
2023/08/27 05:39:22;;;;;;;3.85;2.83;;;;;;;11.79;100.00;100913.63;5051127;28;20067;-77
2023/08/27 05:41:47;;;;;;;9.15;2.40;;;;;;;11.92;100.00;100919.47;5051469;28;20052;-78
2023/08/27 05:44:12;;;;;;;6.82;2.65;;;;;;;12.07;100.00;100925.22;5049553;28;20342;-78
2023/08/27 05:46:38;;;;;;;3.38;2.10;;;;;;;12.19;100.00;100920.53;5051370;28;20381;-78
2023/08/27 05:49:03;;;;;;;3.92;1.83;;;;;;;12.33;100.00;100919.19;5049674;28;20056;-78
2023/08/27 05:51:29;;;;;;;9.23;2.10;;;;;;;12.46;100.00;100918.84;5062310;28;20155;-80
2023/08/27 05:53:55;;;;;;;3.95;2.03;;;;;;;12.54;100.00;100924.28;5091506;28;20052;-77
2023/08/27 05:56:20;;;;;;;2.92;1.95;;;;;;;12.61;100.00;100914.66;5091541;28;20039;-78
2023/08/27 05:58:46;;;;;;;2.90;1.85;;;;;;;12.67;100.00;100911.44;5091079;28;20053;-78
2023/08/27 06:01:11;;;;;;;6.78;2.10;;;;;;;12.77;100.00;100915.84;5091226;28;20198;-78
2023/08/27 06:03:37;;;;;;;6.85;1.80;;;;;;;12.80;100.00;100919.03;5091434;28;20081;-77
2023/08/27 06:06:03;;;;;;;3.28;1.88;;;;;;;12.81;100.00;100926.06;5091142;28;20032;-78
2023/08/27 06:08:28;;;;;;;3.20;1.98;;;;;;;12.90;100.00;100921.66;5072813;28;20028;-78
2023/08/27 06:10:54;;;;;;;3.67;2.00;;;;;;;13.01;100.00;100925.91;5090993;28;20074;-76
2023/08/27 06:13:19;;;;;;;5.10;2.25;;;;;;;13.10;100.00;100914.31;5091150;28;20216;-78
2023/08/27 06:15:45;;;;;;;5.30;2.35;;;;;;;13.23;100.00;100922.78;5091011;28;20114;-78
2023/08/27 06:18:10;;;;;;;3.70;2.70;;;;;;;13.30;100.00;100917.66;5090834;28;20115;-78
2023/08/27 06:20:36;;;;;;;5.80;3.38;;;;;;;13.39;100.00;100922.09;5090748;28;20077;-78
2023/08/27 06:23:04;;;;;;;5.97;3.20;;;;;;;13.51;100.00;100927.19;5090620;28;20089;-78
2023/08/27 06:25:34;;;;;;;5.00;3.25;;;;;;;13.64;100.00;100929.44;5072709;28;20028;-77
2023/08/27 06:28:03;;;;;;;9.82;4.00;;;;;;;13.80;100.00;100924.22;5072395;28;20056;-77
2023/08/27 06:30:29;;;;;;;7.75;4.18;;;;;;;13.92;100.00;100930.97;5090733;28;20091;-77
2023/08/27 06:32:54;;;;;;;6.75;3.28;;;;;;;14.05;100.00;100938.56;5090278;28;20532;-78
2023/08/27 06:35:20;;;;;;;3.97;2.95;;;;;;;14.06;100.00;100942.91;5090423;28;20024;-78
2023/08/27 06:37:45;;;;;;;4.00;2.97;;;;;;;14.02;100.00;100948.75;5072084;28;20067;-79
2023/08/27 06:40:12;;;;;;;6.65;3.40;;;;;;;13.98;100.00;100942.88;5091106;28;20097;-79
2023/08/27 06:42:38;;;;;;;7.32;3.80;;;;;;;13.85;100.00;100956.69;5090867;28;20028;-79
2023/08/27 06:45:04;;;;;;;8.30;4.13;;;;;;;13.79;100.00;100959.13;5091045;28;20073;-79
2023/08/27 06:47:30;;;;;;;8.88;4.95;;;;;;;13.79;100.00;100951.09;5090837;28;20043;-79
2023/08/27 06:49:56;;;;;;;6.93;4.93;;;;;;;13.79;100.00;100959.13;5090404;28;20028;-78
2023/08/27 06:52:21;;;;;;;10.00;5.20;;;;;;;13.78;100.00;100946.75;5072414;28;20044;-78
2023/08/27 06:54:47;;;;;;;12.27;5.53;;;;;;;13.77;100.00;100951.28;5090565;28;20032;-79
2023/08/27 06:57:12;;;;;;;12.68;5.40;;;;;;;13.74;100.00;100952.41;5090638;28;20069;-78
2023/08/27 06:59:38;;;;;;;8.20;5.25;;;;;;;13.75;100.00;100954.09;5055480;28;20040;-78
2023/08/27 07:02:03;;;;;;;8.38;5.47;;;;;;;13.77;100.00;100942.41;5072116;28;20046;-78
2023/08/27 07:04:29;;;;;;;9.63;4.80;;;;;;;13.75;100.00;100943.41;5072218;28;20413;-79
2023/08/27 07:06:55;;;;;;;7.80;4.25;;;;;;;13.71;100.00;100938.53;5090401;28;20024;-79
2023/08/27 07:09:22;;;;;;;6.82;3.92;;;;;;;13.67;100.00;100926.47;5090633;28;20111;-79
2023/08/27 07:11:47;;;;;;;9.80;4.05;;;;;;;13.71;100.00;100925.16;5090333;28;20137;-78
2023/08/27 07:14:13;;;;;;;8.93;3.00;;;;;;;13.64;100.00;100918.75;5090710;28;20112;-78
2023/08/27 07:16:38;;;;;;;6.40;3.35;;;;;;;13.60;100.00;100910.22;5090648;28;20036;-78
2023/08/27 07:19:03;;;;;;;9.55;3.25;;;;;;;13.63;100.00;100890.34;5090600;28;20031;-78
2023/08/27 07:21:29;;;;;;;6.75;2.90;;;;;;;13.63;100.00;100882.31;5090299;28;20063;-78
2023/08/27 07:23:54;;;;;;;5.40;2.88;;;;;;;13.58;100.00;100886.31;5090046;28;20074;-78
2023/08/27 07:26:19;;;;;;;4.13;2.28;;;;;;;13.55;100.00;100886.66;5090823;28;20032;-78
2023/08/27 07:28:45;;;;;;;4.93;2.10;;;;;;;13.52;100.00;100905.63;5090371;28;20130;-78
2023/08/27 07:31:10;;;;;;;5.40;2.45;;;;;;;13.52;100.00;100915.50;5091633;28;20097;-78
2023/08/27 07:33:36;;;;;;;4.65;1.90;;;;;;;13.46;100.00;100903.59;5094240;28;20048;-78
2023/08/27 07:36:01;;;;;;;5.60;2.00;;;;;;;13.48;100.00;100896.28;5093949;28;20136;-78
2023/08/27 07:38:27;;;;;;;6.90;2.03;;;;;;;13.52;100.00;100883.44;5094010;28;20111;-78
2023/08/27 07:40:53;;;;;;;6.70;1.80;;;;;;;13.49;100.00;100881.06;5094299;28;20527;-79
2023/08/27 07:43:19;;;;;;;4.63;1.80;;;;;;;13.45;100.00;100879.69;5059007;28;20126;-78
2023/08/27 07:45:44;;;;;;;6.88;1.75;;;;;;;13.39;100.00;100887.38;5058882;28;20519;-82
2023/08/27 07:48:10;;;;;;;7.88;1.80;;;;;;;13.40;100.00;100888.19;5093995;28;20050;-79
2023/08/27 07:50:35;;;;;;;1.70;1.30;;;;;;;13.31;100.00;100891.78;5094299;28;20051;-79
2023/08/27 07:53:00;;;;;;;5.78;1.80;;;;;;;13.27;100.00;100891.25;5093366;28;20063;-79
2023/08/27 07:55:31;;;;;;;4.25;1.50;;;;;;;13.20;100.00;100890.19;5094232;28;20087;-80
2023/08/27 07:57:56;;;;;;;1.83;1.17;;;;;;;13.10;100.00;100892.13;5093777;28;20065;-79
2023/08/27 08:00:21;;;;;;;1.73;1.27;;;;;;;12.96;100.00;100891.66;5075261;28;20028;-80
2023/08/27 08:02:47;;;;;;;2.28;1.15;;;;;;;12.88;100.00;100894.25;5058732;28;20032;-81
2023/08/27 08:05:12;;;;;;;2.85;1.60;;;;;;;12.82;100.00;100894.84;5075271;28;20181;-80
2023/08/27 08:07:38;;;;;;;2.03;1.23;;;;;;;12.74;100.00;100898.28;5093767;28;20031;-80
2023/08/27 08:10:03;;;;;;;5.30;1.48;;;;;;;12.71;100.00;100890.59;5075090;28;20132;-79
2023/08/27 08:12:29;;;;;;;3.63;1.38;;;;;;;12.70;100.00;100892.44;5093429;28;20062;-79
2023/08/27 08:14:54;;;;;;;5.22;1.50;;;;;;;12.70;100.00;100892.44;5075216;28;20116;-79
2023/08/27 08:17:20;;;;;;;4.35;1.55;;;;;;;12.72;100.00;100905.63;5093346;28;20063;-79
2023/08/27 08:19:45;;;;;;;4.72;1.98;;;;;;;12.77;100.00;100907.84;5074762;28;20031;-79
2023/08/27 08:22:12;;;;;;;4.70;1.80;;;;;;;12.83;100.00;100904.56;5093049;28;20081;-79
2023/08/27 08:24:37;;;;;;;1.85;1.48;;;;;;;12.92;100.00;100913.50;5093202;28;20085;-79
2023/08/27 08:27:03;;;;;;;3.38;1.30;;;;;;;12.98;100.00;100918.22;5058319;28;20146;-79
2023/08/27 08:29:32;;;;;;;4.05;1.05;;;;;;;13.00;100.00;100913.56;5074576;28;20038;-80
2023/08/27 08:31:58;;;;;;;3.55;1.13;;;;;;;13.02;100.00;100919.59;5092795;28;20028;-80
2023/08/27 08:34:27;;;;;;;1.73;1.33;;;;;;;12.98;100.00;100921.72;5092883;28;20028;-80
2023/08/27 08:36:53;;;;;;;2.33;1.30;;;;;;;13.10;100.00;100929.50;5092855;28;20027;-81
2023/08/27 08:39:19;;;;;;;1.60;1.42;;;;;;;13.29;100.00;100923.16;5074239;28;20032;-79
2023/08/27 08:41:54;;;;;;;2.95;1.67;;;;;;;13.56;100.00;100923.06;5092126;28;20040;-79
2023/08/27 08:44:52;;;;;;;3.30;1.65;;;;;;;14.05;100.00;100922.50;5074388;28;20107;-80
2023/08/27 08:47:21;;;;;;;3.17;1.67;;;;;;;14.52;100.00;100926.53;5046121;28;20143;-79
2023/08/27 08:49:57;;;;;;;2.65;1.38;;;;;;;14.93;100.00;100925.84;5092307;28;20390;-81
2023/08/27 08:52:26;;;;;;;3.22;1.10;;;;;;;15.02;100.00;100926.66;5092078;28;20124;-80
2023/08/27 08:54:54;;;;;;;2.60;0.90;;;;;;;14.92;100.00;100922.28;5057609;28;20503;-81
2023/08/27 08:57:23;;;;;;;3.25;1.10;;;;;;;14.65;100.00;100918.06;5092225;28;20059;-79
2023/08/27 08:59:49;;;;;;;3.22;1.08;;;;;;;14.67;100.00;100928.63;5073923;28;20066;-78
2023/08/27 09:02:18;;;;;;;2.08;1.10;;;;;;;14.46;100.00;100917.34;5073914;28;20036;-77
2023/08/27 09:04:46;;;;;;;2.10;1.10;;;;;;;14.25;100.00;100919.59;5073980;28;20032;-79
2023/08/27 09:07:13;;;;;;;1.20;0.93;;;;;;;14.14;100.00;100922.53;5073933;28;20040;-78
2023/08/27 09:09:40;;;;;;;2.83;1.00;;;;;;;13.88;100.00;100908.22;5091867;28;20070;-78
2023/08/27 09:12:08;;;;;;;2.90;0.98;;;;;;;13.79;100.00;100914.50;5091715;28;20132;-79
2023/08/27 09:14:35;;;;;;;1.27;1.17;;;;;;;13.69;100.00;100917.31;5092504;28;20028;-79
2023/08/27 09:17:00;;;;;;;1.90;1.10;;;;;;;13.53;100.00;100920.69;5091852;28;20032;-79
2023/08/27 09:19:26;;;;;;;1.85;1.10;;;;;;;13.33;100.00;100919.16;5073837;28;20031;-79
2023/08/27 09:21:52;;;;;;;2.10;1.10;;;;;;;13.19;100.00;100912.56;5091942;28;20100;-78
2023/08/27 09:24:17;;;;;;;2.88;1.30;;;;;;;12.99;100.00;100903.88;5092042;28;20580;-79
2023/08/27 09:26:42;;;;;;;6.65;1.30;;;;;;;12.92;100.00;100908.97;5057228;28;20036;-79
2023/08/27 09:29:08;;;;;;;4.40;1.40;;;;;;;12.84;100.00;100917.75;5091962;28;20464;-79
2023/08/27 09:31:39;;;;;;;1.52;1.10;;;;;;;12.74;100.00;100918.81;5092028;28;20055;-80
2023/08/27 09:34:04;;;;;;;2.25;1.60;;;;;;;12.66;100.00;100909.72;5091962;28;20089;-79
2023/08/27 09:36:35;;;;;;;2.83;1.25;;;;;;;12.62;100.00;100902.19;5091577;28;20028;-80
2023/08/27 09:39:12;;;;;;;1.15;1.05;;;;;;;12.61;100.00;100900.50;5091725;28;20023;-80
2023/08/27 09:41:39;;;;;;;4.13;1.30;;;;;;;12.63;100.00;100896.69;5091380;28;20376;-79
2023/08/27 09:44:06;;;;;;;3.65;1.20;;;;;;;12.66;100.00;100898.22;5091354;28;20032;-80
2023/08/27 09:46:32;;;;;;;2.42;1.33;;;;;;;12.74;100.00;100900.13;5091695;28;20139;-78
2023/08/27 09:49:04;;;;;;;5.35;1.40;;;;;;;12.81;100.00;100899.38;5091429;28;20452;-80
2023/08/27 09:51:32;;;;;;;4.57;1.20;;;;;;;12.88;100.00;100907.59;5091119;28;20073;-81
2023/08/27 09:53:58;;;;;;;4.82;1.70;;;;;;;12.89;100.00;100906.63;5069167;28;20116;-80
2023/08/27 09:56:25;;;;;;;4.15;1.20;;;;;;;12.92;100.00;100914.31;5071177;28;20048;-78
2023/08/27 09:58:55;;;;;;;6.38;1.55;;;;;;;12.95;100.00;100911.34;5069298;28;20025;-78
2023/08/27 10:01:21;;;;;;;5.13;1.60;;;;;;;13.03;100.00;100921.25;5070988;28;20111;-78
2023/08/27 10:03:47;;;;;;;3.00;1.40;;;;;;;13.14;100.00;100928.22;5069719;28;20066;-78
2023/08/27 10:06:14;;;;;;;4.60;1.77;;;;;;;13.26;100.00;100926.16;5071154;28;20040;-79
2023/08/27 10:08:50;;;;;;;4.47;1.90;;;;;;;13.37;100.00;100929.41;5071020;28;20491;-78
2023/08/27 10:11:16;;;;;;;6.93;1.48;;;;;;;13.43;100.00;100927.13;5071353;28;20051;-79
2023/08/27 10:13:43;;;;;;;3.22;1.27;;;;;;;13.48;100.00;100917.66;5053587;28;20345;-78
2023/08/27 10:16:11;;;;;;;4.38;1.60;;;;;;;13.60;100.00;100923.59;5070805;28;20043;-79
2023/08/27 10:18:37;;;;;;;2.53;1.40;;;;;;;13.78;100.00;100920.00;5070941;28;20040;-79
2023/08/27 10:21:04;;;;;;;4.57;1.65;;;;;;;13.86;100.00;100918.22;5070949;28;20099;-79
2023/08/27 10:23:31;;;;;;;3.92;1.40;;;;;;;13.93;100.00;100921.13;5070636;28;20127;-78
2023/08/27 10:25:58;;;;;;;6.75;1.48;;;;;;;14.04;100.00;100928.03;5069661;28;20102;-79
2023/08/27 10:28:26;;;;;;;5.38;1.77;;;;;;;14.16;100.00;100921.38;5070956;28;20043;-78
2023/08/27 10:30:53;;;;;;;7.65;1.60;;;;;;;14.30;100.00;100919.91;5070522;28;20028;-78
2023/08/27 10:33:18;;;;;;;4.13;1.38;;;;;;;14.40;100.00;100919.81;5070694;28;20440;-80
2023/08/27 10:35:47;;;;;;;4.22;1.27;;;;;;;14.62;100.00;100923.75;5069653;28;20108;-80
2023/08/27 10:38:15;;;;;;;3.10;1.65;;;;;;;14.86;100.00;100924.81;5069277;28;20025;-80
2023/08/27 10:40:44;;;;;;;13.68;3.33;;;;;;;14.99;100.00;100920.63;5070677;28;20111;-79
2023/08/27 10:43:16;;;;;;;3.90;1.10;;;;;;;15.12;100.00;100920.16;5069025;28;20098;-79
2023/08/27 10:45:42;;;;;;;4.72;1.08;;;;;;;15.28;100.00;100921.97;5070831;28;20037;-77
2023/08/27 10:48:25;;;;;;;6.22;1.08;;;;;;;15.55;100.00;100919.13;5070699;28;20105;-85
2023/08/27 10:51:06;;;;;;;2.83;1.20;;;;;;;16.09;100.00;100921.19;5069166;28;20184;-78
2023/08/27 10:53:53;;;;;;;2.70;0.70;;;;;;;16.69;100.00;100919.72;5086987;28;20048;-78
2023/08/27 10:56:31;;;;;;;2.55;0.85;;;;;;;17.12;100.00;100924.66;5090698;28;20043;-78
2023/08/27 10:58:58;;;;;;;2.08;0.68;;;;;;;17.40;100.00;100922.25;5090556;28;20062;-79
2023/08/27 11:01:23;;;;;;;4.90;0.93;;;;;;;17.69;100.00;100936.75;5090122;28;20375;-78
2023/08/27 11:04:06;;;;;;;3.13;0.70;;;;;;;17.61;100.00;100937.69;5072489;28;20047;-79
2023/08/27 11:06:45;;;;;;;3.75;0.80;;;;;;;17.68;100.00;100940.50;5074493;28;20042;-79
2023/08/27 11:09:21;;;;;;;1.60;0.73;;;;;;;17.96;100.00;100940.72;5094638;28;20064;-79
2023/08/27 11:11:51;;;;;;;1.92;0.93;;;;;;;18.33;100.00;100934.41;5094703;28;20032;-78
2023/08/27 11:14:19;;;;;;;0.95;0.75;;;;;;;18.68;100.00;100939.16;5094839;28;20466;-79